Port Huron, Michigan
Current Conditions -  °F | °C
As of 6:07 AM on Sunday 23 Nov 2014 (Local Time) from CYZR Reporting Station
Broken Clouds Broken Clouds  
Wind Chill: 36°   Ceiling: 2500
Heat Index: 41°   Visibility: 9mi
Dew Point: 37°   Wind: 8mph
Humidity: 87%   Direction: 190°S
Pressure: 29.93"   Gusts: NA
Location:  42.98°N, 82.43°W
Report Text: CYZR 231107Z AUTO 19007KT 9SM BKN025 05/03 A2993 RMK SLP138
Loading
Personal Weather Stations






























Interactive Weather Map New forecast layout! Learn more

10-Day Weather Forecast

Advertisements
Track Severe Weather on mobile